Time;durP1;ratioP1;P1;durP2;ratioP2;P2;SDS_P1;SDS_P2;PMS_P1;PMS_P2;Temp;Humidity;BMP_temperature;BMP_pressure;BME280_temperature;BME280_humidity;BME280_pressure;Samples;Min_cycle;Max_cycle;Signal;HPM_P1;HPM_P2
2022/09/08 00:01:17;;;;;;;130.30;123.07;;;;;;;;;;10146519;28;20692;-66
2022/09/08 00:06:16;;;;;;;127.18;120.15;;;;;;;;;;10147200;28;20054;-66
2022/09/08 00:11:15;;;;;;;136.70;129.13;;;;;;;;;;10149321;28;20054;-66
2022/09/08 00:16:11;;;;;;;137.43;129.85;;;;;;;;;;10145453;28;20065;-66
2022/09/08 00:21:08;;;;;;;134.40;126.80;;;;;;;;;;10152864;28;20484;-66
2022/09/08 00:26:04;;;;;;;131.88;124.53;;;;;;;;;;10149342;28;20065;-67
2022/09/08 00:31:00;;;;;;;130.18;122.93;;;;;;;;;;10152743;28;20665;-66
2022/09/08 00:35:57;;;;;;;131.50;123.72;;;;;;;;;;10145529;28;20046;-66
2022/09/08 00:40:54;;;;;;;133.60;126.20;;;;;;;;;;10151608;28;20046;-66
2022/09/08 00:45:50;;;;;;;132.07;124.60;;;;;;;;;;10146365;28;20062;-66
2022/09/08 00:50:47;;;;;;;134.18;126.57;;;;;;;;;;10150874;28;20054;-66
2022/09/08 00:55:43;;;;;;;134.23;126.53;;;;;;;;;;10147166;28;20050;-67
2022/09/08 01:00:41;;;;;;;141.35;133.45;;;;;;;;;;10147240;28;20057;-66
2022/09/08 01:05:56;;;;;;;136.63;128.93;;;;;;;;;;10141782;28;20049;-67
2022/09/08 01:12:43;;;;;;;135.65;128.05;;;;;;;;;;10150291;28;20049;-67
2022/09/08 01:16:40;;;;;;;135.77;127.95;;;;;;;;;;10148662;28;20687;-67
2022/09/08 01:21:57;;;;;;;134.15;126.38;;;;;;;;;;10146061;28;20042;-66
2022/09/08 01:27:11;;;;;;;137.43;129.77;;;;;;;;;;10151478;28;20055;-66
2022/09/08 01:32:09;;;;;;;130.35;122.95;;;;;;;;;;10147798;28;20061;-66
2022/09/08 01:37:05;;;;;;;133.77;125.95;;;;;;;;;;10143390;28;20046;-66
2022/09/08 01:42:02;;;;;;;132.25;124.22;;;;;;;;;;10138251;28;20046;-66
2022/09/08 01:46:59;;;;;;;134.98;127.18;;;;;;;;;;10133715;28;20595;-66
2022/09/08 01:51:55;;;;;;;134.23;126.53;;;;;;;;;;10142355;28;20086;-66
2022/09/08 01:56:51;;;;;;;136.05;128.32;;;;;;;;;;10140598;28;20055;-66
2022/09/08 02:01:48;;;;;;;133.95;126.07;;;;;;;;;;10141232;28;20550;-66
2022/09/08 02:06:45;;;;;;;135.88;128.32;;;;;;;;;;10146915;28;20038;-66
2022/09/08 02:11:41;;;;;;;128.85;121.63;;;;;;;;;;10156640;28;20534;-66
2022/09/08 02:16:37;;;;;;;138.48;130.13;;;;;;;;;;10149343;28;20054;-66
2022/09/08 02:21:34;;;;;;;139.27;131.38;;;;;;;;;;10149720;28;20065;-66
2022/09/08 02:26:30;;;;;;;141.20;133.35;;;;;;;;;;10147026;28;20050;-67
2022/09/08 02:31:27;;;;;;;140.52;132.40;;;;;;;;;;10149424;28;20045;-66
2022/09/08 02:36:24;;;;;;;137.50;129.65;;;;;;;;;;10143216;28;20051;-67
2022/09/08 02:41:21;;;;;;;132.85;125.05;;;;;;;;;;10143974;28;20401;-67
2022/09/08 02:46:18;;;;;;;134.02;126.38;;;;;;;;;;10144447;28;20042;-67
2022/09/08 02:51:17;;;;;;;128.15;120.97;;;;;;;;;;10150115;28;20073;-67
2022/09/08 02:56:13;;;;;;;137.27;129.57;;;;;;;;;;10143827;28;20058;-67
2022/09/08 03:01:09;;;;;;;135.07;127.45;;;;;;;;;;10154207;28;21714;-66
2022/09/08 03:06:06;;;;;;;131.07;123.82;;;;;;;;;;10160131;28;20080;-66
2022/09/08 03:11:03;;;;;;;133.48;124.82;;;;;;;;;;10152822;28;20046;-67
2022/09/08 03:15:59;;;;;;;135.52;127.90;;;;;;;;;;10131871;28;20050;-66
2022/09/08 03:21:00;;;;;;;130.63;123.15;;;;;;;;;;10136328;28;20125;-67
2022/09/08 03:26:00;;;;;;;133.80;126.25;;;;;;;;;;10141312;28;20773;-66
2022/09/08 03:30:56;;;;;;;134.65;126.88;;;;;;;;;;10134222;28;20133;-66
2022/09/08 03:35:53;;;;;;;132.00;124.68;;;;;;;;;;10143377;28;20161;-66
2022/09/08 03:40:49;;;;;;;133.25;125.90;;;;;;;;;;10144784;28;20053;-66
2022/09/08 03:45:45;;;;;;;137.18;129.68;;;;;;;;;;10143312;28;20078;-67
2022/09/08 03:50:42;;;;;;;134.20;126.53;;;;;;;;;;10150677;28;20057;-66
2022/09/08 03:55:42;;;;;;;127.45;120.22;;;;;;;;;;10136882;28;20046;-66
2022/09/08 04:00:41;;;;;;;128.13;121.10;;;;;;;;;;10128231;28;20054;-66
2022/09/08 04:05:38;;;;;;;128.32;121.03;;;;;;;;;;10139706;28;20046;-66
2022/09/08 04:10:34;;;;;;;125.45;118.65;;;;;;;;;;10133717;28;20054;-66
2022/09/08 04:15:31;;;;;;;124.40;117.43;;;;;;;;;;10133122;28;20054;-67
2022/09/08 04:20:28;;;;;;;123.03;116.05;;;;;;;;;;10139655;28;20046;-68
2022/09/08 04:25:24;;;;;;;129.50;122.20;;;;;;;;;;10126714;28;20058;-68
2022/09/08 04:30:21;;;;;;;127.43;120.43;;;;;;;;;;10147594;28;20042;-67
2022/09/08 04:35:18;;;;;;;124.93;117.95;;;;;;;;;;10146414;28;20051;-67
2022/09/08 04:40:14;;;;;;;138.70;130.95;;;;;;;;;;10145000;28;20057;-67
2022/09/08 04:45:11;;;;;;;107.78;101.15;;;;;;;;;;10139778;28;20101;-68
2022/09/08 04:50:07;;;;;;;119.25;112.63;;;;;;;;;;10125325;28;20053;-68
2022/09/08 04:55:04;;;;;;;120.47;113.82;;;;;;;;;;10135705;28;20057;-68
2022/09/08 05:00:00;;;;;;;193.90;183.30;;;;;;;;;;10135618;28;20050;-68
2022/09/08 05:04:56;;;;;;;169.77;160.13;;;;;;;;;;10133254;28;20051;-68
2022/09/08 05:09:53;;;;;;;162.55;153.60;;;;;;;;;;10143006;28;20478;-69
2022/09/08 05:14:49;;;;;;;181.07;170.70;;;;;;;;;;10138574;28;20043;-69
2022/09/08 05:19:45;;;;;;;199.70;187.02;;;;;;;;;;10147870;28;20043;-68
2022/09/08 05:24:41;;;;;;;198.10;186.63;;;;;;;;;;10149830;28;20038;-68
2022/09/08 05:29:38;;;;;;;207.32;194.65;;;;;;;;;;10147707;28;20046;-67
2022/09/08 05:34:34;;;;;;;202.80;190.90;;;;;;;;;;10143809;28;20050;-67
2022/09/08 05:39:30;;;;;;;210.10;197.63;;;;;;;;;;10135974;28;20066;-68
2022/09/08 05:44:26;;;;;;;203.95;192.20;;;;;;;;;;10130149;28;20097;-68
2022/09/08 05:49:23;;;;;;;211.00;199.02;;;;;;;;;;10137097;28;20100;-68
2022/09/08 05:54:19;;;;;;;209.57;197.80;;;;;;;;;;10135301;28;20056;-68
2022/09/08 05:59:16;;;;;;;215.82;203.13;;;;;;;;;;10136098;28;20050;-68
2022/09/08 06:04:12;;;;;;;206.88;195.55;;;;;;;;;;10136995;28;20061;-68
2022/09/08 06:09:09;;;;;;;194.15;183.27;;;;;;;;;;10146589;28;20053;-68
2022/09/08 06:14:05;;;;;;;200.98;190.35;;;;;;;;;;10147984;28;20057;-68
2022/09/08 06:19:02;;;;;;;202.52;191.40;;;;;;;;;;10146133;28;20046;-68
2022/09/08 06:23:59;;;;;;;181.57;171.85;;;;;;;;;;10142295;28;20741;-68
2022/09/08 06:28:56;;;;;;;161.70;152.88;;;;;;;;;;10144637;28;20073;-68
2022/09/08 06:33:53;;;;;;;124.75;117.90;;;;;;;;;;10147245;28;20057;-68
2022/09/08 06:38:54;;;;;;;106.35;100.03;;;;;;;;;;10142886;28;20441;-68
2022/09/08 06:44:07;;;;;;;96.00;90.72;;;;;;;;;;10145198;28;20054;-68
2022/09/08 06:49:04;;;;;;;90.43;85.22;;;;;;;;;;10148513;28;20066;-68
2022/09/08 06:54:06;;;;;;;85.07;80.43;;;;;;;;;;10135898;28;20429;-68
2022/09/08 06:59:06;;;;;;;79.55;75.20;;;;;;;;;;10145568;28;20052;-66
2022/09/08 07:04:17;;;;;;;75.10;71.10;;;;;;;;;;10134048;28;20047;-66
2022/09/08 07:09:16;;;;;;;;;;;;;;;;;;10144589;28;20074;-66
2022/09/08 07:14:32;;;;;;;55.63;52.17;;;;;;;;;;10140462;28;19929;-68
2022/09/08 07:19:40;;;;;;;59.25;55.78;;;;;;;;;;10141974;28;20039;-65
2022/09/08 07:24:38;;;;;;;42.55;40.00;;;;;;;;;;10125395;28;20713;-68
2022/09/08 07:29:55;;;;;;;42.92;40.40;;;;;;;;;;10131878;28;20043;-68
2022/09/08 07:35:05;;;;;;;44.80;41.85;;;;;;;;;;10133494;28;20046;-67
2022/09/08 07:40:16;;;;;;;44.25;41.60;;;;;;;;;;10124382;28;20046;-68
2022/09/08 07:45:12;;;;;;;38.47;36.20;;;;;;;;;;10133292;28;20054;-66
2022/09/08 07:55:47;;;;;;;38.30;36.08;;;;;;;;;;10127778;28;20046;-68
2022/09/08 08:00:49;;;;;;;37.60;35.20;;;;;;;;;;10142843;28;20054;-67
2022/09/08 08:06:11;;;;;;;29.73;27.83;;;;;;;;;;10142713;28;20052;-68
2022/09/08 08:11:23;;;;;;;29.50;27.70;;;;;;;;;;10139776;28;20101;-69
2022/09/08 08:16:34;;;;;;;26.90;25.15;;;;;;;;;;10142659;28;20492;-68
2022/09/08 08:21:43;;;;;;;26.40;24.70;;;;;;;;;;10147971;28;20097;-69
2022/09/08 08:27:00;;;;;;;25.52;23.85;;;;;;;;;;10143030;28;20046;-69
2022/09/08 08:32:01;;;;;;;24.60;22.90;;;;;;;;;;10144937;28;20595;-69
2022/09/08 08:37:20;;;;;;;25.25;23.27;;;;;;;;;;10151162;28;20046;-69
2022/09/08 08:42:22;;;;;;;25.08;23.38;;;;;;;;;;10142890;28;20047;-69
2022/09/08 08:47:37;;;;;;;23.50;21.90;;;;;;;;;;10140829;28;20969;-69
2022/09/08 08:52:52;;;;;;;21.42;19.95;;;;;;;;;;10137394;28;20109;-69
2022/09/08 08:57:51;;;;;;;17.92;16.83;;;;;;;;;;10134292;28;20412;-68
2022/09/08 09:03:06;;;;;;;17.27;16.15;;;;;;;;;;10137658;28;20051;-68
2022/09/08 09:08:08;;;;;;;21.85;20.33;;;;;;;;;;10130417;28;20054;-67
2022/09/08 09:13:23;;;;;;;18.10;16.98;;;;;;;;;;10132629;28;20050;-68
2022/09/08 09:18:22;;;;;;;20.63;18.58;;;;;;;;;;10137679;28;20042;-67
2022/09/08 09:23:41;;;;;;;18.90;17.60;;;;;;;;;;10133728;28;20054;-68
2022/09/08 09:28:53;;;;;;;17.50;16.20;;;;;;;;;;10140710;28;20424;-68
2022/09/08 09:34:06;;;;;;;15.40;14.00;;;;;;;;;;10145729;28;20034;-68
2022/09/08 09:39:08;;;;;;;14.85;13.68;;;;;;;;;;10145998;28;20056;-68
2022/09/08 09:44:23;;;;;;;14.05;13.02;;;;;;;;;;10141014;28;20046;-67
2022/09/08 09:49:37;;;;;;;13.43;12.32;;;;;;;;;;10147085;28;20046;-68
2022/09/08 09:54:42;;;;;;;13.70;12.48;;;;;;;;;;10142809;28;20043;-68
2022/09/08 09:59:44;;;;;;;12.52;11.23;;;;;;;;;;10135982;28;20056;-67
2022/09/08 10:04:56;;;;;;;14.95;12.68;;;;;;;;;;10126700;28;20046;-68
2022/09/08 10:09:55;;;;;;;13.77;12.27;;;;;;;;;;10133982;28;20058;-68
2022/09/08 10:15:31;;;;;;;13.10;11.90;;;;;;;;;;10133582;28;20503;-67
2022/09/08 10:20:44;;;;;;;13.45;12.40;;;;;;;;;;10129276;28;20030;-68
2022/09/08 10:25:54;;;;;;;12.75;11.77;;;;;;;;;;10129236;28;20522;-68
2022/09/08 10:31:08;;;;;;;13.18;12.07;;;;;;;;;;10144398;28;20177;-68
2022/09/08 10:36:08;;;;;;;13.88;12.73;;;;;;;;;;10123291;28;20730;-68
2022/09/08 10:41:12;;;;;;;12.32;11.23;;;;;;;;;;10135719;28;20050;-68
2022/09/08 10:46:16;;;;;;;13.63;12.43;;;;;;;;;;10132389;28;20068;-68
2022/09/08 10:51:21;;;;;;;24.35;22.13;;;;;;;;;;10132413;28;20050;-67
2022/09/08 10:56:27;;;;;;;55.20;51.47;;;;;;;;;;10135913;28;20429;-68
2022/09/08 11:01:42;;;;;;;97.18;91.60;;;;;;;;;;10135228;28;20047;-67
2022/09/08 11:06:58;;;;;;;123.18;115.22;;;;;;;;;;10132647;28;20050;-67
2022/09/08 11:12:17;;;;;;;136.90;128.70;;;;;;;;;;10145439;28;20532;-68
2022/09/08 11:17:24;;;;;;;137.48;129.13;;;;;;;;;;10136918;28;20046;-67
2022/09/08 11:22:59;;;;;;;150.35;141.20;;;;;;;;;;10149414;28;20096;-67
2022/09/08 11:27:58;;;;;;;138.77;129.85;;;;;;;;;;10147499;28;20075;-67
2022/09/08 11:33:00;;;;;;;150.43;140.57;;;;;;;;;;10139213;28;20045;-68
2022/09/08 11:37:57;;;;;;;151.77;142.27;;;;;;;;;;10140404;28;20133;-67
2022/09/08 11:43:08;;;;;;;144.02;134.85;;;;;;;;;;10136133;28;20043;-67
2022/09/08 11:48:17;;;;;;;155.63;146.25;;;;;;;;;;10140870;28;20060;-67
2022/09/08 11:53:25;;;;;;;150.65;141.27;;;;;;;;;;10133246;28;20046;-67
2022/09/08 11:58:59;;;;;;;149.55;140.20;;;;;;;;;;10138202;28;20034;-67
2022/09/08 12:04:18;;;;;;;147.80;138.35;;;;;;;;;;10125288;28;20046;-67
2022/09/08 12:09:21;;;;;;;150.60;141.30;;;;;;;;;;10149759;28;20141;-68
2022/09/08 12:14:29;;;;;;;154.02;143.65;;;;;;;;;;10135164;28;20480;-68
2022/09/08 12:19:39;;;;;;;150.93;141.48;;;;;;;;;;10135508;28;20042;-68
2022/09/08 12:24:43;;;;;;;143.07;133.95;;;;;;;;;;10129243;28;20129;-68
2022/09/08 12:30:06;;;;;;;150.88;141.55;;;;;;;;;;10141133;28;20046;-68
2022/09/08 12:35:21;;;;;;;144.63;135.50;;;;;;;;;;10148831;28;20047;-69
2022/09/08 12:40:46;;;;;;;148.07;138.88;;;;;;;;;;10140209;28;20046;-68
2022/09/08 12:45:54;;;;;;;139.23;129.88;;;;;;;;;;10145468;28;20133;-68
2022/09/08 12:51:00;;;;;;;130.88;122.07;;;;;;;;;;10146595;28;20116;-68
2022/09/08 12:55:56;;;;;;;130.00;121.13;;;;;;;;;;10148671;28;20500;-68
2022/09/08 13:00:57;;;;;;;112.60;105.25;;;;;;;;;;10148973;28;20484;-68
2022/09/08 13:06:11;;;;;;;121.68;113.45;;;;;;;;;;10149256;28;20056;-68
2022/09/08 13:11:11;;;;;;;127.53;118.80;;;;;;;;;;10149078;28;20065;-68
2022/09/08 13:16:07;;;;;;;140.73;131.18;;;;;;;;;;10136381;28;20042;-68
2022/09/08 13:21:12;;;;;;;121.50;113.35;;;;;;;;;;10146964;28;20129;-68
2022/09/08 13:26:11;;;;;;;140.98;130.38;;;;;;;;;;10146489;28;20385;-68
2022/09/08 13:31:26;;;;;;;145.88;134.25;;;;;;;;;;10148729;28;20057;-68
2022/09/08 13:36:38;;;;;;;106.82;99.43;;;;;;;;;;10136189;28;20065;-68
2022/09/08 13:41:43;;;;;;;114.53;106.68;;;;;;;;;;10147402;28;20124;-68
2022/09/08 13:46:51;;;;;;;111.00;103.28;;;;;;;;;;10139362;28;20134;-68
2022/09/08 13:52:06;;;;;;;111.22;103.40;;;;;;;;;;10141203;28;20042;-68
2022/09/08 13:57:15;;;;;;;103.97;96.72;;;;;;;;;;10132852;28;20042;-68
2022/09/08 14:02:30;;;;;;;111.65;103.35;;;;;;;;;;10131406;28;20146;-68
2022/09/08 14:07:26;;;;;;;109.88;101.68;;;;;;;;;;10133561;28;20065;-67
2022/09/08 14:12:24;;;;;;;108.15;100.25;;;;;;;;;;10137540;28;20496;-66
2022/09/08 14:17:20;;;;;;;103.32;95.18;;;;;;;;;;10132306;28;20050;-68
2022/09/08 14:22:20;;;;;;;102.90;95.50;;;;;;;;;;10128234;28;20042;-68
2022/09/08 14:27:39;;;;;;;81.43;75.65;;;;;;;;;;10129384;28;20050;-67
2022/09/08 14:32:37;;;;;;;113.97;105.65;;;;;;;;;;10144682;28;20519;-68
2022/09/08 14:37:44;;;;;;;94.20;87.40;;;;;;;;;;10145236;28;20058;-66
2022/09/08 14:42:40;;;;;;;94.90;88.07;;;;;;;;;;10132069;28;20050;-65
2022/09/08 14:47:54;;;;;;;98.78;91.78;;;;;;;;;;10132289;28;20051;-67
2022/09/08 14:53:01;;;;;;;95.50;88.53;;;;;;;;;;10129274;28;20049;-67
2022/09/08 14:58:17;;;;;;;91.85;85.32;;;;;;;;;;10124029;28;20109;-67
2022/09/08 15:03:24;;;;;;;96.50;89.47;;;;;;;;;;10132366;28;20054;-68
2022/09/08 15:08:24;;;;;;;92.87;86.27;;;;;;;;;;10128710;28;20054;-68
2022/09/08 15:13:26;;;;;;;91.50;84.93;;;;;;;;;;10148816;28;20449;-67
2022/09/08 15:18:35;;;;;;;89.20;82.50;;;;;;;;;;10120346;28;20668;-67
2022/09/08 15:23:38;;;;;;;91.32;84.60;;;;;;;;;;10128749;28;20779;-67
2022/09/08 15:28:58;;;;;;;93.30;86.63;;;;;;;;;;10129114;28;20062;-67
2022/09/08 15:33:57;;;;;;;93.88;87.28;;;;;;;;;;10139353;28;20038;-67
2022/09/08 15:39:03;;;;;;;91.93;85.40;;;;;;;;;;10124229;28;20043;-67
2022/09/08 15:44:38;;;;;;;90.32;83.85;;;;;;;;;;10129110;28;20521;-67
2022/09/08 15:49:42;;;;;;;95.38;88.68;;;;;;;;;;10170699;28;20038;-66
2022/09/08 15:54:49;;;;;;;100.38;93.13;;;;;;;;;;10133693;28;21455;-67
2022/09/08 16:00:09;;;;;;;96.63;89.43;;;;;;;;;;10128199;28;20058;-67
2022/09/08 16:05:28;;;;;;;103.43;95.93;;;;;;;;;;10124402;28;20066;-68
2022/09/08 16:10:25;;;;;;;109.88;101.97;;;;;;;;;;10134388;28;20054;-68
2022/09/08 16:15:41;;;;;;;105.10;97.43;;;;;;;;;;10135186;28;20058;-68
2022/09/08 16:20:50;;;;;;;104.25;96.75;;;;;;;;;;10149056;28;20048;-68
2022/09/08 16:25:52;;;;;;;100.97;93.60;;;;;;;;;;10149154;28;20050;-68
2022/09/08 16:31:04;;;;;;;107.25;99.65;;;;;;;;;;10150478;28;20054;-67
2022/09/08 16:36:06;;;;;;;106.43;98.93;;;;;;;;;;10142031;28;20054;-67
2022/09/08 16:41:25;;;;;;;104.77;97.43;;;;;;;;;;10120114;28;20046;-67
2022/09/08 16:46:27;;;;;;;110.13;102.63;;;;;;;;;;10136065;28;20054;-67
2022/09/08 16:51:24;;;;;;;;;;;;;;;;;;10138630;28;20050;-67
2022/09/08 16:56:20;;;;;;;100.25;93.55;;;;;;;;;;10133146;28;19922;-68
2022/09/08 17:01:33;;;;;;;97.53;90.85;;;;;;;;;;10139444;28;20046;-68
2022/09/08 17:06:33;;;;;;;96.30;89.90;;;;;;;;;;10141152;28;20049;-68
2022/09/08 17:11:44;;;;;;;112.43;104.72;;;;;;;;;;10132534;28;20126;-68
2022/09/08 17:16:40;;;;;;;112.50;104.60;;;;;;;;;;10131583;28;20557;-68
2022/09/08 17:21:43;;;;;;;112.07;104.22;;;;;;;;;;10133739;28;20039;-68
2022/09/08 17:26:46;;;;;;;112.70;104.82;;;;;;;;;;10131742;28;20731;-68
2022/09/08 17:31:44;;;;;;;96.43;89.97;;;;;;;;;;10148027;28;20057;-68
2022/09/08 17:36:49;;;;;;;86.28;80.13;;;;;;;;;;10142995;28;20073;-67
2022/09/08 17:41:58;;;;;;;88.53;82.40;;;;;;;;;;10127341;28;20042;-68
2022/09/08 17:46:56;;;;;;;94.75;87.80;;;;;;;;;;10141343;28;20037;-67
2022/09/08 17:51:57;;;;;;;88.38;81.88;;;;;;;;;;10138334;28;20050;-68
2022/09/08 17:57:01;;;;;;;93.80;87.30;;;;;;;;;;10123439;28;20042;-68
2022/09/08 18:02:17;;;;;;;94.18;87.63;;;;;;;;;;10131457;28;20523;-68
2022/09/08 18:07:18;;;;;;;94.00;87.28;;;;;;;;;;10123973;28;20047;-68
2022/09/08 18:12:20;;;;;;;95.97;89.07;;;;;;;;;;10126996;28;20053;-67
2022/09/08 18:17:36;;;;;;;92.40;85.82;;;;;;;;;;10145851;28;20045;-68
2022/09/08 18:22:35;;;;;;;85.90;79.65;;;;;;;;;;10149453;28;20061;-68
2022/09/08 18:27:32;;;;;;;83.30;77.20;;;;;;;;;;10148469;28;20577;-68
2022/09/08 18:32:53;;;;;;;88.30;81.68;;;;;;;;;;10147751;28;20038;-68
2022/09/08 18:37:51;;;;;;;74.63;69.32;;;;;;;;;;10144023;28;20038;-68
2022/09/08 18:43:01;;;;;;;74.07;68.78;;;;;;;;;;10144277;28;20523;-68
2022/09/08 18:48:00;;;;;;;75.00;69.60;;;;;;;;;;10147654;28;20046;-67
2022/09/08 18:52:56;;;;;;;82.10;76.30;;;;;;;;;;10148045;28;20046;-68
2022/09/08 18:58:08;;;;;;;76.93;71.47;;;;;;;;;;10142977;28;20039;-68
2022/09/08 19:03:14;;;;;;;72.40;67.13;;;;;;;;;;10145561;28;20062;-67
2022/09/08 19:08:10;;;;;;;73.55;68.20;;;;;;;;;;10130844;28;20054;-68
2022/09/08 19:13:15;;;;;;;68.57;63.65;;;;;;;;;;10145325;28;20046;-67
2022/09/08 19:18:23;;;;;;;71.28;66.18;;;;;;;;;;10139782;28;20047;-68
2022/09/08 19:23:21;;;;;;;69.85;64.32;;;;;;;;;;10142916;28;20039;-68
2022/09/08 19:28:25;;;;;;;67.72;62.80;;;;;;;;;;10139652;28;20050;-68
2022/09/08 19:33:40;;;;;;;62.53;57.70;;;;;;;;;;10141045;28;20043;-68
2022/09/08 19:38:42;;;;;;;63.40;58.40;;;;;;;;;;10139065;28;20057;-67
2022/09/08 19:44:00;;;;;;;58.05;53.72;;;;;;;;;;10141330;28;20049;-67
2022/09/08 19:49:03;;;;;;;56.58;52.10;;;;;;;;;;10126342;28;20050;-66
2022/09/08 19:54:19;;;;;;;57.95;53.38;;;;;;;;;;10146329;28;20050;-67
2022/09/08 19:59:34;;;;;;;62.75;57.75;;;;;;;;;;10149084;28;20046;-67
2022/09/08 20:04:41;;;;;;;62.28;57.55;;;;;;;;;;10133049;28;20065;-68
2022/09/08 20:10:12;;;;;;;57.75;53.42;;;;;;;;;;10151660;28;20420;-67
2022/09/08 20:15:19;;;;;;;62.72;57.97;;;;;;;;;;10139084;28;20046;-67
2022/09/08 20:20:21;;;;;;;60.40;56.00;;;;;;;;;;10141100;28;20054;-67
2022/09/08 20:25:23;;;;;;;64.93;60.13;;;;;;;;;;10138194;28;20046;-67
2022/09/08 20:30:20;;;;;;;65.20;60.40;;;;;;;;;;10144895;28;20105;-67
2022/09/08 20:35:24;;;;;;;65.85;60.85;;;;;;;;;;10133309;28;20059;-67
2022/09/08 20:40:38;;;;;;;66.80;61.60;;;;;;;;;;10139585;28;20047;-67
2022/09/08 20:45:40;;;;;;;64.32;59.65;;;;;;;;;;10122955;28;20151;-67
2022/09/08 20:50:36;;;;;;;68.43;62.15;;;;;;;;;;10129992;28;20054;-67
2022/09/08 20:55:35;;;;;;;69.85;64.28;;;;;;;;;;10136265;28;20042;-67
2022/09/08 21:00:33;;;;;;;69.43;64.07;;;;;;;;;;10154607;28;20053;-67
2022/09/08 21:05:35;;;;;;;68.15;62.75;;;;;;;;;;10152927;28;20042;-67
2022/09/08 21:10:35;;;;;;;68.63;63.25;;;;;;;;;;10151172;28;20042;-67
2022/09/08 21:15:50;;;;;;;68.50;63.40;;;;;;;;;;10142236;28;20043;-66
2022/09/08 21:20:51;;;;;;;70.70;65.50;;;;;;;;;;10139008;28;20137;-67
2022/09/08 21:25:53;;;;;;;68.50;63.53;;;;;;;;;;10149614;28;20504;-67
2022/09/08 21:30:50;;;;;;;71.00;65.80;;;;;;;;;;10150459;28;20054;-67
2022/09/08 21:35:53;;;;;;;75.30;68.97;;;;;;;;;;10146240;28;20057;-66
2022/09/08 21:41:08;;;;;;;72.15;66.85;;;;;;;;;;10151104;28;20050;-66
2022/09/08 21:46:13;;;;;;;71.60;65.97;;;;;;;;;;10137989;28;20046;-66
2022/09/08 21:51:12;;;;;;;71.07;65.80;;;;;;;;;;10148730;28;20078;-66
2022/09/08 21:56:15;;;;;;;73.60;68.45;;;;;;;;;;10148950;28;20043;-66
2022/09/08 22:01:20;;;;;;;70.40;65.50;;;;;;;;;;10140372;28;20046;-66
2022/09/08 22:06:21;;;;;;;71.60;66.40;;;;;;;;;;10148753;28;20046;-67
2022/09/08 22:11:19;;;;;;;75.18;69.78;;;;;;;;;;10148172;28;20504;-67
2022/09/08 22:16:23;;;;;;;72.15;67.15;;;;;;;;;;10136590;28;20050;-67
2022/09/08 22:21:29;;;;;;;74.97;69.65;;;;;;;;;;10142376;28;20504;-67
2022/09/08 22:26:32;;;;;;;73.15;68.15;;;;;;;;;;10139399;28;20054;-67
2022/09/08 22:31:29;;;;;;;72.30;67.10;;;;;;;;;;10146225;28;20054;-67
2022/09/08 22:36:28;;;;;;;72.35;67.25;;;;;;;;;;10148040;28;20806;-67
2022/09/08 22:41:25;;;;;;;72.72;67.60;;;;;;;;;;10146635;28;20070;-67
2022/09/08 22:46:24;;;;;;;72.70;67.57;;;;;;;;;;10138148;28;20050;-67
2022/09/08 22:51:56;;;;;;;75.03;69.90;;;;;;;;;;10132216;28;20055;-65
2022/09/08 22:56:56;;;;;;;73.63;68.28;;;;;;;;;;10166816;28;20038;-65
2022/09/08 23:02:00;;;;;;;73.13;67.35;;;;;;;;;;10146927;28;20503;-67
2022/09/08 23:07:16;;;;;;;78.78;71.15;;;;;;;;;;10149380;28;20046;-67
2022/09/08 23:12:17;;;;;;;77.22;69.80;;;;;;;;;;10150325;28;20054;-67
2022/09/08 23:17:17;;;;;;;76.07;67.95;;;;;;;;;;10151690;28;20129;-67
2022/09/08 23:22:25;;;;;;;77.07;69.13;;;;;;;;;;10149994;28;20054;-68
2022/09/08 23:27:37;;;;;;;76.00;68.25;;;;;;;;;;10144843;28;20050;-67
2022/09/08 23:32:37;;;;;;;76.55;69.07;;;;;;;;;;10141350;28;20055;-67
2022/09/08 23:37:43;;;;;;;84.53;73.25;;;;;;;;;;10150743;28;20130;-67
2022/09/08 23:42:48;;;;;;;75.22;67.72;;;;;;;;;;10151673;28;20046;-66
2022/09/08 23:47:49;;;;;;;70.82;64.03;;;;;;;;;;10156431;28;20045;-67
2022/09/08 23:52:46;;;;;;;75.82;68.72;;;;;;;;;;10156118;28;20046;-68
2022/09/08 23:57:42;;;;;;;74.57;67.47;;;;;;;;;;10152008;28;20513;-68
